Time;durP1;ratioP1;P1;durP2;ratioP2;P2;SDS_P1;SDS_P2;PMS_P1;PMS_P2;Temp;Humidity;BMP_temperature;BMP_pressure;BME280_temperature;BME280_humidity;BME280_pressure;Samples;Min_cycle;Max_cycle;Signal;HPM_P1;HPM_P2
2021/01/15 00:01:35;;;;;;;;;;;;;;;-2.44;66.18;100037.59;122578;1103;104660;-71
2021/01/15 00:04:00;;;;;;;;;;;;;;;-2.50;65.59;100043.13;122562;1103;104721;-71
2021/01/15 00:06:26;;;;;;;;;;;;;;;-2.53;65.48;100035.43;122697;1103;104603;-69
2021/01/15 00:08:53;;;;;;;;;;;;;;;-2.54;64.51;100052.05;122447;1103;105163;-69
2021/01/15 00:11:21;;;;;;;;;;;;;;;-2.55;65.54;100057.34;122506;1107;104644;-70
2021/01/15 00:13:47;;;;;;;;;;;;;;;-2.63;64.06;100055.09;122460;1103;104599;-69
2021/01/15 00:16:17;;;;;;;;;;;;;;;-2.68;65.13;100062.30;122424;1103;104638;-69
2021/01/15 00:18:42;;;;;;;;;;;;;;;-2.72;64.35;100052.92;122532;1103;104642;-71
2021/01/15 00:21:07;;;;;;;;;;;;;;;-2.73;64.14;100061.66;122573;1106;104762;-72
2021/01/15 00:23:33;;;;;;;;;;;;;;;-2.78;64.54;100065.34;122565;1107;104698;-71
2021/01/15 00:25:59;;;;;;;;;;;;;;;-2.72;65.26;100063.37;122549;1103;104599;-71
2021/01/15 00:28:25;;;;;;;;;;;;;;;-2.77;64.78;100072.27;122648;1103;104702;-71
2021/01/15 00:30:50;;;;;;;;;;;;;;;-2.78;65.40;100059.28;122557;1103;104600;-72
2021/01/15 00:33:16;;;;;;;;;;;;;;;-2.78;64.10;100060.12;122632;1103;104619;-71
2021/01/15 00:35:41;;;;;;;;;;;;;;;-2.80;64.47;100068.95;122537;1103;104913;-71
2021/01/15 00:38:07;;;;;;;;;;;;;;;-2.83;63.44;100072.56;122580;1103;105028;-72
2021/01/15 00:40:32;;;;;;;;;;;;;;;-2.88;64.99;100071.92;122666;1104;104573;-71
2021/01/15 00:42:58;;;;;;;;;;;;;;;-2.85;64.93;100071.80;122570;1103;104574;-71
2021/01/15 00:45:23;;;;;;;;;;;;;;;-2.83;65.12;100077.79;122600;1110;104709;-72
2021/01/15 00:47:49;;;;;;;;;;;;;;;-2.78;64.70;100082.78;122524;1103;104612;-72
2021/01/15 00:50:15;;;;;;;;;;;;;;;-2.80;63.94;100079.40;122553;1103;104587;-72
2021/01/15 00:52:41;;;;;;;;;;;;;;;-2.86;63.75;100090.14;122643;1107;104580;-72
2021/01/15 00:55:07;;;;;;;;;;;;;;;-3.04;64.12;100094.42;122599;1103;104599;-72
2021/01/15 00:57:39;;;;;;;;;;;;;;;-3.25;64.06;100102.34;122572;1107;104619;-72
2021/01/15 01:00:06;;;;;;;;;;;;;;;-3.35;64.54;100103.64;122545;1103;108394;-73
2021/01/15 01:02:52;;;;;;;;;;;;;;;-3.52;64.32;100104.42;122452;1103;104599;-69
2021/01/15 01:05:21;;;;;;;;;;;;;;;-3.66;64.28;100107.61;122516;1103;104616;-70
2021/01/15 01:07:47;;;;;;;;;;;;;;;-3.72;64.27;100107.88;122450;1107;104619;-69
2021/01/15 01:10:13;;;;;;;;;;;;;;;-3.80;64.00;100115.19;122413;1103;104597;-70
2021/01/15 01:12:39;;;;;;;;;;;;;;;-3.91;64.51;100122.61;122528;1106;104603;-72
2021/01/15 01:15:05;;;;;;;;;;;;;;;-4.03;64.24;100119.59;122551;1103;104615;-70
2021/01/15 01:17:31;;;;;;;;;;;;;;;-4.05;64.67;100131.84;122506;1103;104695;-70
2021/01/15 01:19:56;;;;;;;;;;;;;;;-4.09;64.62;100129.45;122539;1103;104605;-69
2021/01/15 01:22:22;;;;;;;;;;;;;;;-4.15;64.70;100133.15;122449;1103;104616;-70
2021/01/15 01:24:47;;;;;;;;;;;;;;;-4.17;64.47;100134.97;122510;1103;104606;-70
2021/01/15 01:27:13;;;;;;;;;;;;;;;-4.20;64.74;100135.09;122416;1103;104600;-70
2021/01/15 01:29:38;;;;;;;;;;;;;;;-4.21;64.85;100136.02;122526;1104;104664;-72
2021/01/15 01:32:04;;;;;;;;;;;;;;;-4.23;64.49;100135.23;122539;1103;105154;-71
2021/01/15 01:34:29;;;;;;;;;;;;;;;-4.26;64.79;100143.16;122564;1107;104590;-70
2021/01/15 01:36:55;;;;;;;;;;;;;;;-4.29;64.57;100143.27;122539;1103;104612;-69
2021/01/15 01:39:20;;;;;;;;;;;;;;;-4.39;64.67;100133.23;122428;1106;104647;-70
2021/01/15 01:41:46;;;;;;;;;;;;;;;-4.43;64.67;100142.05;122518;1107;104685;-70
2021/01/15 01:44:11;;;;;;;143.00;29.10;;;;;;;-4.49;64.45;100144.91;122478;1103;104696;-70
2021/01/15 01:46:37;;;;;;;9.65;5.80;;;;;;;-4.53;64.75;100148.55;122461;1103;104669;-71
2021/01/15 01:49:03;;;;;;;9.27;4.43;;;;;;;-4.57;64.18;100149.58;122504;1104;104692;-70
2021/01/15 01:51:30;;;;;;;8.93;4.70;;;;;;;-4.62;64.58;100154.11;122481;1103;104740;-69
2021/01/15 01:53:56;;;;;;;9.67;5.13;;;;;;;-4.63;64.29;100160.23;122472;1103;104744;-69
2021/01/15 01:56:22;;;;;;;9.50;4.87;;;;;;;-4.67;64.54;100169.92;122505;1103;104695;-70
2021/01/15 01:58:50;;;;;;;9.37;4.73;;;;;;;-4.69;64.44;100170.89;122406;1104;109205;-69
2021/01/15 02:01:17;;;;;;;50.57;27.87;;;;;;;-4.71;64.57;100183.09;122398;1103;105117;-69
2021/01/15 02:03:43;;;;;;;146.50;50.10;;;;;;;-4.74;64.89;100182.30;122433;1106;104865;-69
2021/01/15 02:06:13;;;;;;;5.87;3.27;;;;;;;-4.77;64.56;100181.59;122537;1107;104676;-69
2021/01/15 02:08:39;;;;;;;11.67;5.93;;;;;;;-4.81;64.10;100180.86;122456;1107;104713;-69
2021/01/15 02:11:30;;;;;;;385.48;73.12;;;;;;;-4.83;64.54;100194.81;122407;1103;104647;-69
2021/01/15 02:14:21;;;;;;;246.70;50.27;;;;;;;-4.83;64.59;100195.69;122378;1106;105232;-69
2021/01/15 02:16:48;;;;;;;;;;;;;;;-4.80;64.49;100205.97;122429;1103;104574;-69
2021/01/15 02:19:23;;;;;;;;;;;;;;;-4.75;64.25;100203.20;122438;1103;104689;-70
2021/01/15 02:22:08;;;;;;;;;;;;;;;-4.74;63.91;100210.94;122442;1107;109249;-70
2021/01/15 02:24:33;;;;;;;;;;;;;;;-4.82;64.09;100223.39;122425;1107;105159;-71
2021/01/15 02:27:08;;;;;;;;;;;;;;;-4.82;64.48;100218.19;122472;1106;104789;-70
2021/01/15 02:29:33;;;;;;;;;;;;;;;-4.83;64.38;100221.71;122451;1103;104616;-69
2021/01/15 02:32:22;;;;;;;;;;;;;;;-4.87;64.45;100217.50;122454;1104;104650;-69
2021/01/15 02:35:14;;;;;;;;;;;;;;;-4.85;64.30;100215.72;122387;1105;105200;-69
2021/01/15 02:37:59;;;;;;;;;;;;;;;-4.76;64.05;100224.92;122418;1103;104577;-69
2021/01/15 02:40:34;;;;;;;;;;;;;;;-4.73;64.38;100222.22;122482;1103;104701;-69
2021/01/15 02:43:01;;;;;;;;;;;;;;;-4.66;64.04;100223.66;122434;1103;109325;-71
2021/01/15 02:45:27;;;;;;;;;;;;;;;-4.62;64.47;100225.27;122469;1103;104622;-71
2021/01/15 02:47:53;;;;;;;;;;;;;;;-4.57;64.07;100225.09;122538;1103;104619;-71
2021/01/15 02:50:20;;;;;;;;;;;;;;;-4.52;63.92;100223.17;122459;1103;104660;-72
2021/01/15 02:52:47;;;;;;;;;;;;;;;-4.51;64.23;100222.25;122526;1103;104596;-70
2021/01/15 02:55:12;;;;;;;;;;;;;;;-4.48;64.05;100223.87;122459;1103;104987;-70
2021/01/15 02:57:38;;;;;;;;;;;;;;;-4.46;63.94;100228.14;122537;1103;104670;-69
2021/01/15 03:00:11;;;;;;;;;;;;;;;-4.41;64.03;100228.79;122450;1103;104602;-69
2021/01/15 03:02:49;;;;;;;;;;;;;;;-4.39;64.10;100232.21;122511;1103;104574;-70
2021/01/15 03:05:22;;;;;;;;;;;;;;;-4.34;63.87;100230.26;122434;1107;104622;-69
2021/01/15 03:07:49;;;;;;;;;;;;;;;-4.31;63.67;100238.86;122414;1103;109224;-70
2021/01/15 03:10:16;;;;;;;;;;;;;;;-4.35;63.66;100243.34;123248;1101;104581;-69
2021/01/15 03:12:42;;;;;;;;;;;;;;;-4.36;63.55;100239.05;122332;1103;104670;-70
2021/01/15 03:15:10;;;;;;;;;;;;;;;-4.38;63.81;100241.70;122474;1103;104730;-70
2021/01/15 03:17:39;;;;;;;;;;;;;;;-4.33;63.78;100238.91;122441;1101;104619;-69
2021/01/15 03:20:05;;;;;;;;;;;;;;;-4.34;63.42;100238.08;122507;1107;104612;-70
2021/01/15 03:22:32;;;;;;;;;;;;;;;-4.31;63.97;100237.13;122555;1103;104651;-70
2021/01/15 03:24:59;;;;;;;;;;;;;;;-4.26;63.76;100242.14;122443;1103;104702;-70
2021/01/15 03:27:31;;;;;;;;;;;;;;;-4.24;63.66;100248.14;122462;1103;104597;-70
2021/01/15 03:29:57;;;;;;;;;;;;;;;-4.29;63.50;100242.25;122434;1103;109281;-70
2021/01/15 03:32:22;;;;;;;;;;;;;;;-4.30;63.71;100243.18;122422;1104;104699;-71
2021/01/15 03:34:48;;;;;;;;;;;;;;;-4.29;63.64;100244.86;122483;1103;104696;-71
2021/01/15 03:37:13;;;;;;;;;;;;;;;-4.27;63.77;100249.12;122450;1106;105043;-71
2021/01/15 03:39:38;;;;;;;;;;;;;;;-4.28;63.52;100254.39;122540;1103;104702;-71
2021/01/15 03:42:04;;;;;;;;;;;;;;;-4.31;63.64;100255.36;122448;1111;104574;-70
2021/01/15 03:44:30;;;;;;;;;;;;;;;-4.28;63.58;100260.44;122634;1103;104618;-70
2021/01/15 03:46:55;;;;;;;;;;;;;;;-4.23;63.65;100271.54;122421;1103;108992;-71
2021/01/15 03:49:21;;;;;;;;;;;;;;;-4.19;63.65;100264.46;122458;1103;104590;-69
2021/01/15 03:51:47;;;;;;;;;;;;;;;-4.15;63.63;100264.27;122512;1103;104635;-70
2021/01/15 03:54:12;;;;;;;;;;;;;;;-4.10;63.75;100258.86;122463;1103;104666;-69
2021/01/15 03:56:38;;;;;;;;;;;;;;;-4.05;63.55;100256.94;122525;1103;105156;-71
2021/01/15 03:59:04;;;;;;;;;;;;;;;-3.98;63.70;100268.83;122505;1103;104567;-70
2021/01/15 04:01:30;;;;;;;;;;;;;;;-3.97;63.42;100254.03;122425;1103;104574;-68
2021/01/15 04:03:56;;;;;;;;;;;;;;;-3.93;63.52;100245.17;122515;1103;104650;-68
2021/01/15 04:06:25;;;;;;;;;;;;;;;-3.87;63.99;100252.74;122306;1103;104595;-68
2021/01/15 04:08:51;;;;;;;;;;;;;;;-3.82;63.39;100247.36;122455;1106;104692;-69
2021/01/15 04:11:17;;;;;;;;;;;;;;;-3.74;63.39;100245.28;122434;1103;104653;-69
2021/01/15 04:13:42;;;;;;;;;;;;;;;-3.68;63.18;100228.54;122526;1106;104711;-69
2021/01/15 04:16:11;;;;;;;;;;;;;;;-3.67;64.06;100228.48;122415;1104;104575;-69
2021/01/15 04:18:37;;;;;;;;;;;;;;;-3.64;63.58;100217.06;122449;1103;105212;-69
2021/01/15 04:21:05;;;;;;;;;;;;;;;-3.63;63.36;100216.17;122461;1103;104698;-69
2021/01/15 04:23:31;;;;;;;;;;;;;;;-3.63;63.07;100214.41;122482;1103;104577;-69
2021/01/15 04:25:57;;;;;;;;;;;;;;;-3.64;63.60;100207.48;122523;1103;104573;-69
2021/01/15 04:28:22;;;;;;;;;;;;;;;-3.62;63.71;100191.77;122421;1103;104597;-70
2021/01/15 04:30:48;;;;;;;;;;;;;;;-3.65;63.61;100191.92;122440;1107;104666;-69
2021/01/15 04:33:13;;;;;;;;;;;;;;;-3.65;63.42;100194.53;122528;1103;104695;-69
2021/01/15 04:35:39;;;;;;;;;;;;;;;-3.64;63.95;100183.17;122474;1103;104650;-69
2021/01/15 04:38:04;;;;;;;;;;;;;;;-3.61;63.51;100181.28;122503;1103;104602;-69
2021/01/15 04:40:30;;;;;;;;;;;;;;;-3.58;63.68;100178.55;122457;1103;104615;-69
2021/01/15 04:42:59;;;;;;;;;;;;;;;-3.55;63.57;100188.84;122514;1103;104590;-68
2021/01/15 04:45:25;;;;;;;16.20;7.60;;;;;;;-3.47;63.83;100185.06;122372;1103;109315;-70
2021/01/15 04:47:52;;;;;;;37.87;20.27;;;;;;;-3.50;63.08;100185.19;122406;1103;104561;-69
2021/01/15 04:50:18;;;;;;;108.57;42.40;;;;;;;-3.52;63.18;100192.23;122520;1103;104626;-69
2021/01/15 04:52:46;;;;;;;9.97;4.73;;;;;;;-3.53;63.74;100198.38;122496;1103;104670;-69
2021/01/15 04:55:19;;;;;;;45.43;21.50;;;;;;;-3.60;63.41;100203.86;122442;1103;104740;-69
2021/01/15 04:57:47;;;;;;;;;;;;;;;-3.62;63.55;100210.03;122428;1101;111041;-69
2021/01/15 05:00:15;;;;;;;;;;;;;;;-3.65;63.33;100208.41;122418;1103;105147;-69
2021/01/15 05:02:44;;;;;;;;;;;;;;;-3.64;63.49;100215.30;122458;1107;104670;-69
2021/01/15 05:05:13;;;;;;;;;;;;;;;-3.63;63.37;100222.23;122471;1103;104981;-69
2021/01/15 05:07:39;;;;;;;;;;;;;;;-3.62;63.34;100217.84;122441;1104;109343;-69
2021/01/15 05:10:09;;;;;;;;;;;;;;;-3.67;63.44;100217.22;122446;1107;104574;-70
2021/01/15 05:12:37;;;;;;;;;;;;;;;-3.73;62.89;100222.66;122458;1103;104574;-70
2021/01/15 05:15:03;;;;;;;;;;;;;;;-3.81;62.98;100225.58;122441;1107;104619;-70
2021/01/15 05:17:28;;;;;;;;;;;;;;;-3.87;63.14;100234.50;122416;1103;104693;-70
2021/01/15 05:19:55;;;;;;;;;;;;;;;-3.88;62.91;100227.60;122557;1103;105022;-69
2021/01/15 05:22:21;;;;;;;;;;;;;;;-3.89;63.03;100230.27;122450;1103;105225;-70
2021/01/15 05:24:47;;;;;;;;;;;;;;;-3.91;63.22;100225.11;122466;1104;104616;-73
2021/01/15 05:30:12;;;;;;;;;;;;;;;-3.96;63.20;100245.31;122567;1103;104571;-70
2021/01/15 05:32:38;;;;;;;;;;;;;;;-4.06;63.12;100251.78;122443;1103;109270;-70
2021/01/15 05:35:05;;;;;;;;;;;;;;;-4.12;63.21;100263.29;122449;1103;104575;-69
2021/01/15 05:37:30;;;;;;;;;;;;;;;-4.20;63.11;100270.56;122515;1103;104602;-69
2021/01/15 05:39:58;;;;;;;;;;;;;;;-4.26;62.99;100286.44;122445;1106;104670;-69
2021/01/15 05:42:23;;;;;;;;;;;;;;;-4.26;63.07;100281.22;122422;1103;104596;-69
2021/01/15 05:44:49;;;;;;;;;;;;;;;-4.31;63.43;100260.58;122529;1103;104631;-72
2021/01/15 05:47:14;;;;;;;;;;;;;;;-4.25;63.26;100265.55;122535;1104;104619;-70
2021/01/15 05:49:54;;;;;;;;;;;;;;;-4.22;63.19;100267.17;122469;1103;104695;-71
2021/01/15 05:52:19;;;;;;;;;;;;;;;-4.22;63.59;100269.77;122544;1103;104608;-71
2021/01/15 05:54:47;;;;;;;;;;;;;;;-4.20;63.14;100279.22;122556;1107;104629;-72
2021/01/15 05:57:24;;;;;;;;;;;;;;;-4.21;63.23;100277.54;122493;1103;104683;-70
2021/01/15 05:59:49;;;;;;;;;;;;;;;-4.13;63.27;100287.67;122552;1107;105248;-69
2021/01/15 06:02:15;;;;;;;;;;;;;;;-4.07;63.36;100289.19;122490;1103;104590;-70
2021/01/15 06:04:40;;;;;;;;;;;;;;;-4.03;63.54;100295.98;122638;1103;105028;-70
2021/01/15 06:07:06;;;;;;;;;;;;;;;-4.04;63.25;100295.14;122461;1103;104667;-70
2021/01/15 06:09:31;;;;;;;;;;;;;;;-4.00;63.13;100293.27;122542;1104;104622;-70
2021/01/15 06:12:07;;;;;;;;;;;;;;;-3.98;63.10;100294.89;122473;1103;105031;-70
2021/01/15 06:14:32;;;;;;;;;;;;;;;-3.93;63.18;100286.04;122477;1103;105170;-70
2021/01/15 06:17:10;;;;;;;;;;;;;;;-3.90;62.95;100284.16;122540;1103;104603;-69
2021/01/15 06:19:49;;;;;;;;;;;;;;;-3.85;63.24;100282.23;122461;1108;104692;-69
2021/01/15 06:22:36;;;;;;;;;;;;;;;-3.81;63.56;100275.11;122466;1107;109253;-69
2021/01/15 06:25:20;;;;;;;;;;;;;;;-3.77;63.79;100271.50;122546;1103;105151;-70
2021/01/15 06:27:47;;;;;;;35.80;10.40;;;;;;;-3.75;62.89;100280.11;122537;1108;104657;-70
2021/01/15 06:30:16;;;;;;;;;;;;;;;-3.69;63.53;100282.46;122433;1103;104577;-69
2021/01/15 06:32:44;;;;;;;209.92;63.40;;;;;;;-3.61;63.10;100292.58;122525;1103;109358;-73
2021/01/15 06:35:22;;;;;;;;;;;;;;;-3.58;62.69;100282.88;122509;1103;104699;-69
2021/01/15 06:37:56;;;;;;;;;;;;;;;-3.50;63.27;100286.91;122542;1103;104700;-69
2021/01/15 06:40:28;;;;;;;;;;;;;;;-3.44;63.32;100289.29;122417;1103;104606;-69
2021/01/15 06:42:56;;;;;;;;;;;;;;;-3.40;63.31;100285.64;122493;1104;109238;-70
2021/01/15 06:45:22;;;;;;;;;;;;;;;-3.33;63.30;100291.44;122512;1103;104700;-69
2021/01/15 06:47:53;;;;;;;;;;;;;;;-3.29;63.41;100295.61;122565;1107;104574;-69
2021/01/15 06:50:18;;;;;;;;;;;;;;;-3.26;63.02;100303.32;122552;1107;104597;-69
2021/01/15 06:52:48;;;;;;;;;;;;;;;-3.27;63.29;100302.48;122418;1104;104695;-70
2021/01/15 06:55:15;;;;;;;;;;;;;;;-3.26;63.02;100305.93;122458;1104;105237;-69
2021/01/15 06:57:44;;;;;;;;;;;;;;;-3.29;63.61;100304.31;122591;1110;104580;-74
2021/01/15 07:00:13;;;;;;;;;;;;;;;-3.29;63.58;100293.00;122536;1106;104554;-71
2021/01/15 07:02:54;;;;;;;;;;;;;;;-3.28;62.99;100299.93;122598;1107;108438;-71
2021/01/15 07:05:28;;;;;;;;;;;;;;;-3.24;63.29;100307.55;122602;1103;104983;-71
2021/01/15 07:08:00;;;;;;;;;;;;;;;-3.22;63.75;100310.95;122701;1106;104629;-70
2021/01/15 07:10:25;;;;;;;;;;;;;;;-3.19;62.45;100312.59;122476;1103;104573;-70
2021/01/15 07:12:54;;;;;;;;;;;;;;;-3.16;63.03;100321.16;122449;1103;104606;-70
2021/01/15 07:15:21;;;;;;;;;;;;;;;-3.22;63.38;100325.77;122492;1103;105057;-70
2021/01/15 07:17:47;;;;;;;;;;;;;;;-3.33;63.10;100330.57;122474;1103;104599;-70
2021/01/15 07:20:14;;;;;;;;;;;;;;;-3.43;63.12;100330.10;122617;1107;104647;-70
2021/01/15 07:22:44;;;;;;;;;;;;;;;-3.53;62.92;100334.84;122500;1106;104600;-70
2021/01/15 07:25:12;;;;;;;;;;;;;;;-3.61;62.29;100329.94;122505;1107;109332;-70
2021/01/15 07:27:39;;;;;;;;;;;;;;;-3.71;62.49;100339.04;122505;1106;105231;-72
2021/01/15 07:30:09;;;;;;;;;;;;;;;-3.80;63.12;100337.62;122596;1107;104567;-70
2021/01/15 07:32:35;;;;;;;;;;;;;;;-3.79;62.88;100336.73;122580;1106;104644;-70
2021/01/15 07:35:01;;;;;;;;;;;;;;;-3.84;62.55;100327.39;122636;1103;104583;-70
2021/01/15 07:37:28;;;;;;;;;;;;;;;-3.86;62.90;100324.00;122600;1107;104657;-70
2021/01/15 07:40:14;;;;;;;;;;;;;;;-3.83;63.24;100322.13;122637;1103;105120;-70
2021/01/15 07:42:59;;;;;;;;;;;;;;;-3.77;62.86;100321.87;122540;1103;104583;-70
2021/01/15 07:45:25;;;;;;;;;;;;;;;-3.72;63.08;100324.29;122461;1107;104675;-70
2021/01/15 07:47:50;;;;;;;;;;;;;;;-3.69;62.75;100321.58;122473;1103;104599;-69
2021/01/15 07:50:35;;;;;;;;;;;;;;;-3.65;62.86;100323.14;122524;1103;104593;-70
2021/01/15 07:53:30;;;;;;;;;;;;;;;-3.57;62.49;100323.68;122423;1103;105192;-70
2021/01/15 07:55:57;;;;;;;;;;;;;;;-3.56;63.13;100321.91;122440;1106;104587;-70
2021/01/15 07:58:24;;;;;;;;;;;;;;;-3.58;63.13;100335.04;122503;1103;104622;-70
2021/01/15 08:00:50;;;;;;;;;;;;;;;-3.61;62.62;100331.70;122474;1103;104609;-70
2021/01/15 08:03:15;;;;;;;;;;;;;;;-3.61;63.21;100329.94;122526;1103;104648;-71
2021/01/15 08:05:45;;;;;;;;;;;;;;;-3.58;63.55;100329.83;122482;1103;105044;-71
2021/01/15 08:08:17;;;;;;;;;;;;;;;-3.53;63.18;100329.63;122597;1106;104596;-74
2021/01/15 08:10:48;;;;;;;;;;;;;;;-3.43;63.25;100327.48;122553;1107;105014;-69
2021/01/15 08:13:27;;;;;;;;;;;;;;;-3.38;63.06;100333.38;122449;1107;110907;-69
2021/01/15 08:15:54;;;;;;;;;;;;;;;-3.40;62.92;100332.59;122453;1107;105137;-69
2021/01/15 08:18:20;;;;;;;;;;;;;;;-3.46;63.18;100325.03;122552;1104;104625;-69
2021/01/15 08:20:50;;;;;;;;;;;;;;;-3.42;62.37;100324.83;122462;1107;105035;-70
2021/01/15 08:23:22;;;;;;;;;;;;;;;-3.32;62.36;100332.28;122445;1103;104589;-69
2021/01/15 08:25:52;;;;;;;;;;;;;;;-3.25;63.37;100331.97;122440;1103;105117;-70
2021/01/15 08:28:18;;;;;;;;;;;;;;;-3.17;62.40;100332.48;122433;1106;104733;-69
2021/01/15 08:31:03;;;;;;;;;;;;;;;-3.17;61.88;100329.88;122465;1103;104580;-70
2021/01/15 08:33:28;;;;;;;;;;;;;;;-3.22;62.04;100337.04;122425;1106;109365;-69
2021/01/15 08:35:55;;;;;;;;;;;;;;;-3.23;63.24;100339.74;122453;1106;104696;-69
2021/01/15 08:38:47;;;;;;;;;;;;;;;-3.16;63.44;100336.81;122482;1107;104600;-70
2021/01/15 08:41:14;;;;;;;;;;;;;;;-3.04;62.44;100326.74;122412;1103;105076;-70
2021/01/15 08:43:39;;;;;;;;;;;;;;;-2.99;62.45;100332.63;122423;1104;105085;-70
2021/01/15 08:46:05;;;;;;;;;;;;;;;-2.93;62.64;100340.19;122575;1107;104663;-69
2021/01/15 08:48:31;;;;;;;;;;;;;;;-2.94;62.94;100341.13;122408;1107;109320;-70
2021/01/15 08:51:07;;;;;;;;;;;;;;;-2.86;62.02;100335.58;122452;1103;104600;-69
2021/01/15 08:53:43;;;;;;;;;;;;;;;-2.78;61.83;100336.92;122453;1107;104603;-70
2021/01/15 08:56:13;;;;;;;;;;;;;;;-2.68;62.34;100336.53;122489;1107;104597;-70
2021/01/15 08:58:48;;;;;;;;;;;;;;;-2.55;61.68;100337.70;122523;1103;109232;-69
2021/01/15 09:01:27;;;;;;;;;;;;;;;-2.48;62.24;100325.19;122423;1107;105209;-70
2021/01/15 09:03:55;;;;;;;;;;;;;;;-2.47;62.29;100327.74;122455;1103;104574;-70
2021/01/15 09:06:22;;;;;;;;;;;;;;;-2.44;60.67;100330.23;122461;1103;104574;-69
2021/01/15 09:08:48;;;;;;;;;;;;;;;-2.46;62.20;100329.45;122475;1103;104939;-70
2021/01/15 09:11:14;;;;;;;;;;;;;;;-2.48;61.66;100339.13;122531;1102;104603;-70
2021/01/15 09:13:40;;;;;;;;;;;;;;;-2.46;61.41;100342.52;122474;1107;105078;-70
2021/01/15 09:16:06;;;;;;;;;;;;;;;-2.41;61.67;100335.30;122488;1103;104641;-70
2021/01/15 09:18:31;;;;;;;;;;;;;;;-2.37;61.71;100336.89;122541;1104;104577;-70
2021/01/15 09:20:57;;;;;;;;;;;;;;;-2.35;61.92;100333.34;122497;1107;104597;-70
2021/01/15 09:23:22;;;;;;;;;;;;;;;-2.27;62.40;100337.33;122529;1103;105129;-69
2021/01/15 09:25:48;;;;;;;;;;;;;;;-2.19;61.13;100334.36;122405;1110;109288;-70
2021/01/15 09:28:13;;;;;;;;;;;;;;;-2.11;61.95;100337.47;122433;1103;104692;-69
2021/01/15 09:30:39;;;;;;;;;;;;;;;-2.06;60.97;100338.11;122552;1107;104618;-70
2021/01/15 09:33:04;;;;;;;;;;;;;;;-2.06;60.75;100335.50;122474;1103;104599;-69
2021/01/15 09:35:30;;;;;;;;;;;;;;;-2.03;60.68;100329.27;122530;1103;104597;-70
2021/01/15 09:37:55;;;;;;;;;;;;;;;-2.01;62.25;100324.81;122489;1103;104609;-70
2021/01/15 09:40:21;;;;;;;;;;;;;;;-1.99;61.88;100331.66;122743;1103;104631;-70
2021/01/15 09:42:49;;;;;;;;;;;;;;;-1.94;60.53;100322.74;122698;1103;104609;-70
2021/01/15 09:45:16;;;;;;;;;;;;;;;-1.84;61.46;100318.80;122483;1104;105195;-70
2021/01/15 09:47:45;;;;;;;;;;;;;;;-1.71;62.05;100313.81;122436;1103;104603;-69
2021/01/15 09:50:11;;;;;;;;;;;;;;;-1.66;61.86;100310.05;122418;1104;104606;-69
2021/01/15 09:52:37;;;;;;;;;;;;;;;-1.65;61.12;100318.77;122413;1103;104615;-70
2021/01/15 09:55:03;;;;;;;;;;;;;;;-1.61;61.22;100309.84;122497;1103;104616;-70
2021/01/15 09:57:28;;;;;;;;;;;;;;;-1.60;61.43;100315.02;122425;1103;105323;-70
2021/01/15 09:59:55;;;;;;;;;;;;;;;-1.60;61.09;100320.25;122481;1103;104657;-72
2021/01/15 10:02:20;;;;;;;;;;;;;;;-1.59;60.10;100316.69;122512;1103;104599;-70
2021/01/15 10:04:46;;;;;;;;;;;;;;;-1.54;61.50;100313.00;122634;1103;104574;-72
2021/01/15 10:07:11;;;;;;;;;;;;;;;-1.54;61.23;100311.25;122606;1107;104577;-70
2021/01/15 10:09:37;;;;;;;;;;;;;;;-1.53;60.39;100312.94;122565;1104;104983;-69
2021/01/15 10:12:03;;;;;;;;;;;;;;;-1.45;60.29;100317.80;122454;1103;104577;-70
2021/01/15 10:14:29;;;;;;;;;;;;;;;-1.35;61.22;100326.88;122549;1103;104616;-70
2021/01/15 10:16:55;;;;;;;;;;;;;;;-1.22;60.32;100320.12;122469;1103;104714;-69
2021/01/15 10:19:21;;;;;;;;;;;;;;;-1.17;61.39;100309.44;122460;1106;104618;-70
2021/01/15 10:21:47;;;;;;;;;;;;;;;-1.10;60.86;100312.58;122593;1103;104666;-70
2021/01/15 10:24:14;;;;;;;;;;;;;;;-1.12;60.59;100306.57;122394;1111;111026;-70
2021/01/15 10:26:40;;;;;;;;;;;;;;;-1.09;61.22;100312.50;122434;1103;104596;-70
2021/01/15 10:29:07;;;;;;;;;;;;;;;-1.02;60.06;100310.41;122486;1103;104612;-70
2021/01/15 10:31:34;;;;;;;;;;;;;;;-0.94;60.56;100308.27;122543;1103;104599;-70
2021/01/15 10:34:00;;;;;;;;;;;;;;;-0.88;60.25;100309.73;122445;1104;104596;-70
2021/01/15 10:36:27;;;;;;;;;;;;;;;-0.88;60.17;100301.87;122454;1103;104634;-71
2021/01/15 10:38:53;;;;;;;;;;;;;;;-0.83;60.11;100308.56;122497;1103;104577;-70
2021/01/15 10:41:30;;;;;;;;;;;;;;;-0.81;59.64;100311.08;122556;1107;104597;-70
2021/01/15 10:43:56;;;;;;;;;;;;;;;-0.81;59.69;100306.72;122452;1104;104992;-69
2021/01/15 10:46:31;;;;;;;;;;;;;;;-0.81;60.11;100296.23;122448;1103;104593;-69
2021/01/15 10:48:57;;;;;;;;;;;;;;;-0.88;59.62;100292.23;122519;1107;109271;-71
2021/01/15 10:51:23;;;;;;;;;;;;;;;-0.87;60.07;100303.55;122436;1103;104600;-71
2021/01/15 10:53:48;;;;;;;;;;;;;;;-0.87;60.39;100291.28;122586;1103;104683;-71
2021/01/15 10:56:14;;;;;;;;;;;;;;;-0.86;59.34;100294.78;122476;1103;104687;-69
2021/01/15 10:58:40;;;;;;;;;;;;;;;-0.91;59.40;100291.53;122512;1103;104602;-69
2021/01/15 11:01:06;;;;;;;;;;;;;;;-0.91;59.18;100279.28;122434;1107;104651;-71
2021/01/15 11:03:31;;;;;;;;;;;;;;;-0.88;60.22;100268.66;122426;1103;104635;-70
2021/01/15 11:05:57;;;;;;;;;;;;;;;-0.83;59.77;100273.64;122491;1103;104599;-70
2021/01/15 11:08:23;;;;;;;;;;;;;;;-0.84;59.32;100279.83;122431;1103;104656;-70
2021/01/15 11:10:48;;;;;;;;;;;;;;;-0.84;60.07;100261.48;122533;1103;104711;-70
2021/01/15 11:13:14;;;;;;;;;;;;;;;-0.71;59.67;100259.05;122457;1103;104660;-70
2021/01/15 11:15:40;;;;;;;;;;;;;;;-0.62;59.72;100259.44;122478;1102;105063;-70
2021/01/15 11:18:05;;;;;;;;;;;;;;;-0.62;60.13;100248.95;122511;1103;104622;-69
2021/01/15 11:20:31;;;;;;;;;;;;;;;-0.57;59.47;100243.45;122440;1106;104657;-70
2021/01/15 11:22:56;;;;;;;;;;;;;;;-0.55;58.85;100244.22;122543;1103;104589;-70
2021/01/15 11:25:22;;;;;;;;;;;;;;;-0.56;59.92;100252.16;122464;1103;104571;-69
2021/01/15 11:27:48;;;;;;;;;;;;;;;-0.66;58.69;100249.18;122453;1103;104584;-70
2021/01/15 11:30:13;;;;;;;;;;;;;;;-0.81;58.91;100249.08;122505;1103;104692;-70
2021/01/15 11:32:39;;;;;;;;;;;;;;;-0.88;59.05;100237.22;122451;1103;104670;-69
2021/01/15 11:35:06;;;;;;;;;;;;;;;-0.83;59.64;100235.22;122529;1103;104698;-69
2021/01/15 11:37:35;;;;;;;;;;;;;;;-0.78;58.89;100239.36;122426;1103;109316;-70
2021/01/15 11:40:07;;;;;;;;;;;;;;;-0.81;59.40;100232.49;122453;1103;105277;-70
2021/01/15 11:42:33;;;;;;;;;;;;;;;-0.82;59.34;100230.81;122468;1107;104615;-70
2021/01/15 11:44:59;;;;;;;;;;;;;;;-0.84;58.94;100222.20;122589;1107;104615;-70
2021/01/15 11:47:24;;;;;;;;;;;;;;;-0.81;59.69;100227.25;122515;1110;104581;-69
2021/01/15 11:49:50;;;;;;;;;;;;;;;-0.76;59.87;100224.41;122391;1104;104650;-69
2021/01/15 11:52:15;;;;;;;;;;;;;;;-0.74;59.43;100217.31;122540;1103;104606;-69
2021/01/15 11:54:41;;;;;;;;;;;;;;;-0.74;59.20;100209.45;122445;1106;105159;-70
2021/01/15 11:57:06;;;;;;;;;;;;;;;-0.74;59.48;100209.45;122519;1103;104599;-72
2021/01/15 11:59:32;;;;;;;;;;;;;;;-0.78;59.46;100203.52;122678;1103;105076;-72
2021/01/15 12:01:58;;;;;;;;;;;;;;;-0.76;59.49;100209.52;122611;1103;104615;-72
2021/01/15 12:04:23;;;;;;;;;;;;;;;-0.74;58.58;100202.42;122542;1103;104619;-72
2021/01/15 12:06:53;;;;;;;;;;;;;;;-0.73;59.28;100203.27;122541;1107;109264;-71
2021/01/15 12:09:18;;;;;;;;;;;;;;;-0.65;59.17;100190.62;122538;1103;104609;-72
2021/01/15 12:11:44;;;;;;;;;;;;;;;-0.62;59.03;100190.44;122674;1104;104737;-71
2021/01/15 12:14:09;;;;;;;;;;;;;;;-0.60;58.92;100189.44;122682;1103;104686;-70
2021/01/15 12:16:35;;;;;;;;;;;;;;;-0.52;59.45;100175.05;122456;1103;104724;-71
2021/01/15 12:19:01;;;;;;;;;;;;;;;-0.50;59.17;100174.06;122529;1104;104645;-70